Time;durP1;ratioP1;P1;durP2;ratioP2;P2;SDS_P1;SDS_P2;PMS_P1;PMS_P2;Temp;Humidity;BMP_temperature;BMP_pressure;BME280_temperature;BME280_humidity;BME280_pressure;Samples;Min_cycle;Max_cycle;Signal;HPM_P1;HPM_P2
2023/12/21 00:01:34;;;;;;;77.90;37.70;;;;;;;1.31;100.00;63050.56;5052317;28;20215;-54
2023/12/21 00:03:59;;;;;;;75.73;37.77;;;;;;;0.99;100.00;63017.81;5053488;28;20562;-53
2023/12/21 00:06:25;;;;;;;80.57;40.90;;;;;;;1.17;100.00;63040.31;5071056;28;20189;-55
2023/12/21 00:08:50;;;;;;;76.73;38.50;;;;;;;1.19;100.00;63040.00;5071183;28;20195;-53
2023/12/21 00:11:16;;;;;;;75.30;37.83;;;;;;;1.41;100.00;63063.88;5071360;28;20212;-54
2023/12/21 00:13:41;;;;;;;73.63;37.43;;;;;;;1.46;100.00;63071.78;5071416;28;20217;-52
2023/12/21 00:16:07;;;;;;;81.53;38.93;;;;;;;1.42;100.00;63067.44;5071159;28;20281;-54
2023/12/21 00:18:33;;;;;;;82.93;37.77;;;;;;;1.74;100.00;63099.09;5071034;28;20690;-54
2023/12/21 00:20:59;;;;;;;77.63;34.73;;;;;;;1.75;100.00;63097.16;5071093;28;20203;-53
2023/12/21 00:23:24;;;;;;;89.30;38.67;;;;;;;1.45;100.00;63068.22;5071182;28;20212;-53
2023/12/21 00:25:50;;;;;;;78.20;36.50;;;;;;;1.19;100.00;63040.00;5071150;28;20279;-53
2023/12/21 00:28:15;;;;;;;83.67;37.40;;;;;;;0.85;100.00;63000.69;5052840;28;20297;-54
2023/12/21 00:30:41;;;;;;;86.90;40.10;;;;;;;0.85;100.00;63000.69;5071016;28;20230;-54
2023/12/21 00:33:07;;;;;;;87.43;37.57;;;;;;;0.77;100.00;62992.03;5070696;28;20231;-54
2023/12/21 00:35:33;;;;;;;81.20;37.40;;;;;;;0.94;100.00;63015.41;5070849;28;20201;-54
2023/12/21 00:37:59;;;;;;;77.33;34.40;;;;;;;0.77;100.00;62995.03;5053180;28;20221;-56
2023/12/21 00:40:25;;;;;;;75.07;34.80;;;;;;;0.64;100.00;62980.44;5070620;28;20205;-53
2023/12/21 00:42:51;;;;;;;83.67;35.70;;;;;;;0.46;100.00;62961.47;5070790;28;20291;-52
2023/12/21 00:45:16;;;;;;;82.77;34.17;;;;;;;0.56;100.00;62972.31;5052721;28;20291;-52
2023/12/21 00:47:42;;;;;;;73.73;32.40;;;;;;;0.27;100.00;62940.34;5070359;28;20220;-54
2023/12/21 00:50:08;;;;;;;58.37;29.77;;;;;;;0.28;100.00;62941.44;5070564;28;20201;-53
2023/12/21 00:52:34;;;;;;;55.50;29.40;;;;;;;0.16;100.00;62929.00;5070553;28;20216;-54
2023/12/21 00:54:59;;;;;;;57.43;28.87;;;;;;;0.25;100.00;62938.19;5070214;28;20203;-53
2023/12/21 00:57:25;;;;;;;57.40;27.67;;;;;;;0.46;100.00;62960.94;5052436;28;20686;-54
2023/12/21 00:59:50;;;;;;;55.60;28.93;;;;;;;0.43;100.00;62958.22;5070745;28;20196;-53
2023/12/21 01:02:16;;;;;;;60.77;29.17;;;;;;;0.56;100.00;62971.75;5069292;28;20220;-54
2023/12/21 01:04:41;;;;;;;60.27;30.53;;;;;;;0.54;100.00;62967.66;5070305;28;20546;-53
2023/12/21 01:07:07;;;;;;;59.53;29.00;;;;;;;0.57;100.00;62972.84;5070665;28;20208;-54
2023/12/21 01:09:33;;;;;;;64.17;29.63;;;;;;;0.54;100.00;62967.66;5070416;28;20207;-54
2023/12/21 01:11:58;;;;;;;69.83;30.50;;;;;;;0.88;100.00;63005.88;5070453;28;20246;-53
2023/12/21 01:14:24;;;;;;;52.83;25.30;;;;;;;0.90;100.00;63011.06;5052403;28;20192;-53
2023/12/21 01:16:49;;;;;;;50.77;26.23;;;;;;;1.00;100.00;63021.38;5070045;28;20694;-53
2023/12/21 01:19:15;;;;;;;58.90;27.70;;;;;;;0.96;100.00;63015.09;5070336;28;20236;-53
2023/12/21 01:21:40;;;;;;;51.60;27.87;;;;;;;1.02;100.00;63021.59;5035562;28;20240;-55
2023/12/21 01:24:06;;;;;;;54.60;25.40;;;;;;;1.27;100.00;63046.19;5070501;28;20189;-54
2023/12/21 01:26:31;;;;;;;53.40;26.07;;;;;;;0.87;100.00;63005.34;5069337;28;20501;-54
2023/12/21 01:28:57;;;;;;;48.33;24.27;;;;;;;1.10;100.00;63032.19;5051660;28;20259;-54
2023/12/21 01:31:22;;;;;;;47.30;24.77;;;;;;;1.13;100.00;63035.97;5070096;28;20189;-54
2023/12/21 01:33:48;;;;;;;49.80;24.80;;;;;;;1.15;100.00;63035.16;5069243;28;20196;-54
2023/12/21 01:36:14;;;;;;;48.53;24.17;;;;;;;1.26;100.00;63045.13;5052329;28;20207;-54
2023/12/21 01:38:39;;;;;;;44.27;23.43;;;;;;;1.41;100.00;63066.34;5051962;28;20208;-54
2023/12/21 01:41:05;;;;;;;48.07;24.20;;;;;;;1.54;100.00;63077.41;5069977;28;20588;-55
2023/12/21 01:43:30;;;;;;;43.47;22.67;;;;;;;1.56;100.00;63082.59;5070267;28;20630;-58
2023/12/21 01:45:59;;;;;;;40.50;22.50;;;;;;;1.36;100.00;63058.44;5052193;28;20684;-57
2023/12/21 01:48:26;;;;;;;48.97;24.90;;;;;;;1.53;100.00;63076.88;5070225;28;20212;-55
2023/12/21 01:50:53;;;;;;;41.53;24.20;;;;;;;1.57;100.00;63078.75;5070066;28;20197;-59
2023/12/21 01:53:19;;;;;;;41.27;22.60;;;;;;;1.83;100.00;63111.34;5070063;28;20205;-55
2023/12/21 01:55:46;;;;;;;41.23;22.30;;;;;;;1.88;100.00;63111.28;5069886;28;20564;-55
2023/12/21 01:58:12;;;;;;;44.07;23.90;;;;;;;1.79;100.00;63104.53;5069756;28;20669;-56
2023/12/21 02:00:38;;;;;;;39.40;22.40;;;;;;;1.77;100.00;63104.84;5069793;28;20279;-53
2023/12/21 02:03:05;;;;;;;43.80;23.77;;;;;;;1.96;100.00;63122.44;5069591;28;20311;-54
2023/12/21 02:05:30;;;;;;;41.27;22.97;;;;;;;1.91;100.00;63117.00;5070341;28;20638;-55
2023/12/21 02:07:56;;;;;;;48.03;24.97;;;;;;;1.77;100.00;63101.81;5073520;28;20291;-53
2023/12/21 02:10:21;;;;;;;44.93;24.27;;;;;;;1.91;100.00;63117.00;5038720;28;20205;-55
2023/12/21 02:12:47;;;;;;;44.17;24.53;;;;;;;2.04;100.00;63131.09;5073415;28;20219;-54
2023/12/21 02:15:13;;;;;;;46.43;24.17;;;;;;;2.00;100.00;63124.28;5073413;28;20185;-55
2023/12/21 02:17:40;;;;;;;44.93;24.93;;;;;;;2.00;100.00;63127.28;5073095;28;20239;-55
2023/12/21 02:20:07;;;;;;;39.30;22.13;;;;;;;2.03;100.00;63130.56;5073275;28;20245;-54
2023/12/21 02:22:39;;;;;;;48.87;25.60;;;;;;;2.07;100.00;63136.84;5073038;28;20216;-54
2023/12/21 02:25:05;;;;;;;44.17;25.23;;;;;;;2.11;100.00;63138.69;5054851;28;20208;-58
2023/12/21 02:27:31;;;;;;;44.37;25.77;;;;;;;2.09;100.00;63132.09;5072975;28;20687;-54
2023/12/21 02:29:57;;;;;;;41.57;25.37;;;;;;;2.25;100.00;63153.88;5054980;28;20253;-54
2023/12/21 02:32:22;;;;;;;46.40;25.30;;;;;;;2.34;100.00;63161.16;5072871;28;20596;-54
2023/12/21 02:34:48;;;;;;;42.17;23.77;;;;;;;2.02;100.00;63128.94;5072813;28;20662;-54
2023/12/21 02:37:13;;;;;;;46.63;24.40;;;;;;;2.04;100.00;63128.63;5072701;28;20295;-54
2023/12/21 02:39:39;;;;;;;46.40;24.57;;;;;;;2.08;100.00;63137.94;5072795;28;20201;-54
2023/12/21 02:42:05;;;;;;;46.43;25.77;;;;;;;2.08;100.00;63135.44;5072568;28;20719;-55
2023/12/21 02:44:30;;;;;;;42.90;24.17;;;;;;;2.04;100.00;63128.63;5072508;28;20216;-54
2023/12/21 02:46:58;;;;;;;39.73;23.80;;;;;;;1.95;100.00;63121.34;5054557;28;20221;-55
2023/12/21 02:49:23;;;;;;;40.87;23.57;;;;;;;1.92;100.00;63116.13;5038356;28;20389;-55
2023/12/21 02:51:49;;;;;;;38.13;23.00;;;;;;;1.83;100.00;63105.84;5072738;28;20602;-53
2023/12/21 02:54:14;;;;;;;39.70;23.90;;;;;;;1.86;100.00;63111.59;5054691;28;20200;-54
2023/12/21 02:56:41;;;;;;;43.93;24.17;;;;;;;1.89;100.00;63115.38;5037810;28;20266;-54
2023/12/21 02:59:06;;;;;;;41.27;23.73;;;;;;;2.01;100.00;63127.84;5072617;28;20220;-55
2023/12/21 03:01:32;;;;;;;43.30;25.07;;;;;;;1.98;100.00;63122.66;5071930;28;20691;-55
2023/12/21 03:03:59;;;;;;;40.33;22.30;;;;;;;2.04;100.00;63128.63;5072110;28;20217;-54
2023/12/21 03:06:25;;;;;;;42.17;23.90;;;;;;;2.15;100.00;63143.03;5037407;28;20191;-54
2023/12/21 03:08:51;;;;;;;47.13;24.80;;;;;;;2.22;100.00;63148.16;5054459;28;20194;-54
2023/12/21 03:11:17;;;;;;;38.13;22.77;;;;;;;2.15;100.00;63143.56;5072365;28;20246;-54
2023/12/21 03:13:43;;;;;;;44.77;27.40;;;;;;;2.35;100.00;63165.28;5072164;28;20596;-54
2023/12/21 03:16:09;;;;;;;37.67;21.53;;;;;;;2.54;100.00;63185.38;5072157;28;20187;-54
2023/12/21 03:18:34;;;;;;;37.40;21.73;;;;;;;2.44;100.00;63172.56;5054160;28;20225;-54
2023/12/21 03:21:00;;;;;;;35.90;21.60;;;;;;;2.31;100.00;63160.38;5072086;28;20598;-54
2023/12/21 03:23:25;;;;;;;30.70;17.57;;;;;;;2.51;100.00;63182.09;5072495;28;20223;-53
2023/12/21 03:25:51;;;;;;;25.40;15.30;;;;;;;2.58;100.00;63189.72;5072022;28;20649;-54
2023/12/21 03:28:16;;;;;;;26.00;14.97;;;;;;;2.63;100.00;63190.16;5072016;28;20201;-53
2023/12/21 03:30:43;;;;;;;19.00;10.27;;;;;;;2.70;100.00;63202.72;5072046;28;20216;-53
2023/12/21 03:33:09;;;;;;;18.67;11.50;;;;;;;2.79;100.00;63211.97;5071971;28;20236;-54
2023/12/21 03:35:34;;;;;;;16.87;10.30;;;;;;;2.99;100.00;63231.72;5071822;28;20205;-54
2023/12/21 03:38:07;;;;;;;19.10;10.33;;;;;;;2.96;100.00;63228.47;5071011;28;20213;-54
2023/12/21 03:40:33;;;;;;;17.00;11.17;;;;;;;3.06;100.00;63241.28;5070294;28;20288;-54
2023/12/21 03:42:58;;;;;;;20.27;13.30;;;;;;;2.97;100.00;63226.53;5071771;28;20291;-55
2023/12/21 03:45:24;;;;;;;21.17;13.57;;;;;;;2.92;100.00;63226.63;5071776;28;20193;-53
2023/12/21 03:47:49;;;;;;;25.80;14.83;;;;;;;2.85;100.00;63218.47;5071542;28;20228;-55
2023/12/21 03:50:15;;;;;;;23.93;14.73;;;;;;;2.86;100.00;63219.56;5053747;28;20200;-53
2023/12/21 03:52:41;;;;;;;25.97;16.33;;;;;;;2.85;100.00;63218.47;5053516;28;20788;-55
2023/12/21 03:55:07;;;;;;;25.17;14.83;;;;;;;2.92;100.00;63223.59;5071702;28;20266;-54
2023/12/21 03:57:33;;;;;;;21.93;11.77;;;;;;;2.80;100.00;63210.56;5071866;28;20250;-54
2023/12/21 04:00:00;;;;;;;25.90;13.43;;;;;;;2.82;100.00;63217.69;5053514;28;20695;-53
2023/12/21 04:02:26;;;;;;;21.63;12.63;;;;;;;2.78;100.00;63211.41;5053393;28;20253;-54
2023/12/21 04:04:52;;;;;;;21.30;12.60;;;;;;;2.80;100.00;63210.56;5071535;28;20216;-54
2023/12/21 04:07:17;;;;;;;18.87;12.10;;;;;;;2.83;100.00;63211.84;5071545;28;20204;-54
2023/12/21 04:09:43;;;;;;;21.73;12.47;;;;;;;2.88;100.00;63219.25;5071486;28;20270;-57
2023/12/21 04:12:09;;;;;;;17.97;11.60;;;;;;;2.88;100.00;63219.25;5053272;28;20197;-54
2023/12/21 04:14:35;;;;;;;22.00;12.83;;;;;;;2.96;100.00;63230.97;5071403;28;20267;-56
2023/12/21 04:17:00;;;;;;;20.60;12.37;;;;;;;3.00;100.00;63232.81;5053260;28;20225;-55
2023/12/21 04:19:26;;;;;;;19.20;11.70;;;;;;;2.95;100.00;63227.38;5053428;28;20654;-56
2023/12/21 04:21:52;;;;;;;21.67;12.03;;;;;;;2.99;100.00;63231.72;5053224;28;20288;-55
2023/12/21 04:24:18;;;;;;;16.33;11.17;;;;;;;2.97;100.00;63231.50;5071371;28;20303;-53
2023/12/21 04:26:44;;;;;;;17.00;10.93;;;;;;;3.03;100.00;63238.56;5071122;28;20209;-54
2023/12/21 04:29:09;;;;;;;16.27;9.80;;;;;;;3.02;100.00;63236.94;5070478;28;20188;-54
2023/12/21 04:31:35;;;;;;;17.83;9.53;;;;;;;3.08;100.00;63244.00;5070966;28;20576;-59
2023/12/21 04:34:01;;;;;;;18.57;10.67;;;;;;;3.13;100.00;63248.88;5071376;28;20242;-54
2023/12/21 04:36:27;;;;;;;15.07;9.83;;;;;;;3.10;100.00;63245.63;5071386;28;20176;-54
2023/12/21 04:38:54;;;;;;;14.17;9.03;;;;;;;3.06;100.00;63241.81;5071041;28;20228;-55
2023/12/21 04:41:19;;;;;;;18.00;9.67;;;;;;;3.13;100.00;63249.41;5070660;28;20196;-53
2023/12/21 04:43:45;;;;;;;15.20;9.57;;;;;;;3.10;100.00;63248.66;5070999;28;20210;-54
2023/12/21 04:46:10;;;;;;;14.03;8.90;;;;;;;3.16;100.00;63250.19;5052988;28;20651;-53
2023/12/21 04:48:37;;;;;;;16.60;9.43;;;;;;;3.19;100.00;63253.44;5071018;28;20263;-55
2023/12/21 04:51:03;;;;;;;14.07;9.53;;;;;;;3.17;100.00;63253.75;5070928;28;20215;-53
2023/12/21 04:53:28;;;;;;;14.63;9.37;;;;;;;3.19;100.00;63253.44;5070766;28;20308;-54
2023/12/21 04:55:54;;;;;;;14.53;8.53;;;;;;;3.12;100.00;63247.78;5070716;28;20283;-54
2023/12/21 04:58:19;;;;;;;15.43;9.80;;;;;;;3.20;100.00;63254.53;5070784;28;20209;-55
2023/12/21 05:00:50;;;;;;;15.07;9.20;;;;;;;3.14;100.00;63250.50;5070642;28;20685;-53
2023/12/21 05:03:18;;;;;;;14.03;8.97;;;;;;;3.13;100.00;63246.91;5070429;28;20238;-55
2023/12/21 05:05:44;;;;;;;21.00;10.20;;;;;;;3.23;100.00;63257.78;5070563;28;20212;-54
2023/12/21 05:08:09;;;;;;;14.30;9.23;;;;;;;3.25;100.00;63261.91;5052691;28;20258;-55
2023/12/21 05:10:36;;;;;;;18.90;10.70;;;;;;;3.25;100.00;63259.44;5070416;28;20215;-53
2023/12/21 05:13:01;;;;;;;16.80;10.23;;;;;;;3.34;100.00;63269.75;5070839;28;20647;-53
2023/12/21 05:15:27;;;;;;;17.33;9.87;;;;;;;3.39;100.00;63277.13;5070358;28;20220;-56
2023/12/21 05:17:53;;;;;;;13.53;8.60;;;;;;;3.33;100.00;63268.66;5070293;28;20218;-54
2023/12/21 05:20:19;;;;;;;12.73;7.90;;;;;;;3.31;100.00;63268.97;5070283;28;20194;-55
2023/12/21 05:22:44;;;;;;;10.67;7.10;;;;;;;3.30;100.00;63265.41;5070149;28;20219;-55
2023/12/21 05:25:10;;;;;;;13.50;8.40;;;;;;;3.27;100.00;63259.63;5052377;28;20200;-54
2023/12/21 05:27:42;;;;;;;14.50;8.37;;;;;;;3.43;100.00;63279.50;5052322;28;20201;-54
2023/12/21 05:30:10;;;;;;;14.53;7.47;;;;;;;3.36;100.00;63274.41;5070268;28;20675;-55
2023/12/21 05:32:36;;;;;;;12.63;7.63;;;;;;;3.36;100.00;63274.41;5070446;28;20200;-55
2023/12/21 05:35:03;;;;;;;12.73;7.67;;;;;;;3.30;100.00;63264.84;5070289;28;20676;-55
2023/12/21 05:37:29;;;;;;;11.47;7.27;;;;;;;3.26;100.00;63261.06;5070135;28;20760;-56
2023/12/21 05:39:55;;;;;;;13.60;7.23;;;;;;;3.26;100.00;63258.56;5070408;28;20224;-55
2023/12/21 05:42:20;;;;;;;13.73;8.37;;;;;;;3.30;100.00;63267.88;5079140;22;20257;-54
2023/12/21 05:44:46;;;;;;;13.13;8.40;;;;;;;3.34;100.00;63271.69;5073587;28;20234;-55
2023/12/21 05:47:12;;;;;;;13.50;8.17;;;;;;;3.26;100.00;63260.50;5073509;28;20689;-57
2023/12/21 05:49:38;;;;;;;11.47;7.27;;;;;;;3.32;100.00;63267.03;5055653;28;20197;-54
2023/12/21 05:52:04;;;;;;;13.67;8.17;;;;;;;3.21;100.00;63255.09;5073524;28;20210;-55
2023/12/21 05:54:30;;;;;;;13.43;8.27;;;;;;;3.19;100.00;63255.41;5055368;28;20189;-56
2023/12/21 05:56:56;;;;;;;13.17;7.40;;;;;;;3.28;100.00;63262.69;5073410;28;20246;-55
2023/12/21 05:59:22;;;;;;;12.70;8.43;;;;;;;3.31;100.00;63268.44;5073336;28;20282;-55
2023/12/21 06:01:48;;;;;;;14.57;8.60;;;;;;;3.26;100.00;63261.06;5073203;28;20250;-59
2023/12/21 06:04:14;;;;;;;16.13;9.20;;;;;;;3.23;100.00;63260.28;5073223;28;20245;-54
2023/12/21 06:06:44;;;;;;;15.67;8.83;;;;;;;3.22;100.00;63256.72;5073048;28;20213;-54
2023/12/21 06:09:09;;;;;;;13.30;8.40;;;;;;;3.23;100.00;63259.75;5073502;28;20187;-55
2023/12/21 06:11:35;;;;;;;13.77;7.83;;;;;;;3.31;100.00;63266.47;5072951;28;20287;-55
2023/12/21 06:14:00;;;;;;;15.00;8.87;;;;;;;3.35;100.00;63270.28;5073181;28;20679;-56
2023/12/21 06:16:26;;;;;;;12.97;9.00;;;;;;;3.30;100.00;63269.81;5072993;28;20538;-56
2023/12/21 06:18:51;;;;;;;15.97;8.57;;;;;;;3.26;100.00;63263.00;5073092;28;20181;-56
2023/12/21 06:21:17;;;;;;;15.57;8.73;;;;;;;3.29;100.00;63263.78;5073519;28;20245;-55
2023/12/21 06:23:43;;;;;;;22.27;13.07;;;;;;;5.03;100.00;63454.91;5072860;28;20704;-57
2023/12/21 06:26:08;;;;;;;14.30;8.90;;;;;;;6.99;100.00;63666.28;5055066;28;20671;-59
2023/12/21 06:28:34;;;;;;;11.67;8.43;;;;;;;5.55;100.00;63510.44;5072845;28;20258;-59
2023/12/21 06:30:59;;;;;;;13.90;8.40;;;;;;;4.45;100.00;63389.31;5054945;28;20707;-60
2023/12/21 06:33:26;;;;;;;12.60;7.83;;;;;;;4.02;100.00;63342.56;5072515;28;20220;-59
2023/12/21 06:35:52;;;;;;;11.80;7.90;;;;;;;3.93;100.00;63333.31;5072643;28;20188;-59
2023/12/21 06:38:18;;;;;;;12.17;8.00;;;;;;;3.77;100.00;63315.38;5072723;28;20200;-61
2023/12/21 06:40:43;;;;;;;13.30;8.47;;;;;;;3.60;100.00;63297.44;5054713;28;20586;-59
2023/12/21 06:43:09;;;;;;;15.13;8.47;;;;;;;3.55;100.00;63293.97;5054673;28;20683;-60
2023/12/21 06:45:35;;;;;;;17.83;10.33;;;;;;;3.66;100.00;63303.41;5071221;28;20220;-57
2023/12/21 06:48:01;;;;;;;13.90;8.73;;;;;;;3.60;100.00;63299.94;5070840;28;20210;-59
2023/12/21 06:50:27;;;;;;;14.53;8.87;;;;;;;3.59;100.00;63293.31;5054631;28;20202;-59
2023/12/21 06:52:53;;;;;;;11.33;7.57;;;;;;;3.54;100.00;63293.41;5071880;28;20217;-58
2023/12/21 06:55:18;;;;;;;12.03;7.67;;;;;;;3.54;100.00;63292.88;5072299;28;20198;-59
2023/12/21 06:57:44;;;;;;;13.53;7.53;;;;;;;3.46;100.00;63282.22;5072099;28;20220;-59
2023/12/21 07:00:09;;;;;;;11.50;7.47;;;;;;;3.40;100.00;63275.72;5072594;28;20221;-58
2023/12/21 07:02:35;;;;;;;14.80;7.83;;;;;;;3.46;100.00;63284.16;5072390;28;20306;-58
2023/12/21 07:05:01;;;;;;;13.20;7.67;;;;;;;3.46;100.00;63284.16;5054361;28;20193;-60
2023/12/21 07:07:27;;;;;;;11.30;7.10;;;;;;;3.42;100.00;63278.44;5054143;28;20289;-57
2023/12/21 07:09:53;;;;;;;12.80;7.27;;;;;;;3.54;100.00;63293.41;5072283;28;20179;-60
2023/12/21 07:12:20;;;;;;;10.40;6.40;;;;;;;3.48;100.00;63281.38;5072072;28;20214;-60
2023/12/21 07:14:46;;;;;;;10.30;6.97;;;;;;;3.58;100.00;63299.69;5072194;28;20205;-58
2023/12/21 07:17:12;;;;;;;10.20;6.93;;;;;;;3.60;100.00;63294.94;5072076;28;20235;-57
2023/12/21 07:19:38;;;;;;;12.43;7.70;;;;;;;3.68;100.00;63303.09;5054129;28;20212;-60
2023/12/21 07:22:07;;;;;;;13.63;6.73;;;;;;;3.79;100.00;63318.09;5071909;28;20258;-59
2023/12/21 07:24:33;;;;;;;10.00;6.13;;;;;;;3.78;100.00;63318.94;5071954;28;20183;-59
2023/12/21 07:26:58;;;;;;;10.43;6.67;;;;;;;3.82;100.00;63320.78;5072072;28;20215;-63
2023/12/21 07:29:24;;;;;;;9.27;6.37;;;;;;;3.81;100.00;63322.75;5071839;28;20188;-58
2023/12/21 07:31:49;;;;;;;10.33;6.57;;;;;;;3.66;100.00;63306.44;5053496;28;20219;-56
2023/12/21 07:34:15;;;;;;;10.47;5.97;;;;;;;3.69;100.00;63307.22;5053987;28;20177;-56
2023/12/21 07:36:41;;;;;;;10.97;6.80;;;;;;;3.78;100.00;63319.50;5071654;28;20547;-58
2023/12/21 07:39:06;;;;;;;10.00;6.07;;;;;;;3.87;100.00;63328.72;5071977;28;20184;-57
2023/12/21 07:41:33;;;;;;;10.63;6.40;;;;;;;3.83;100.00;63319.94;5071370;28;20223;-57
2023/12/21 07:43:59;;;;;;;9.17;6.20;;;;;;;4.04;100.00;63347.22;5071744;28;20209;-58
2023/12/21 07:46:25;;;;;;;11.93;7.70;;;;;;;4.10;100.00;63351.78;5071593;28;20184;-58
2023/12/21 07:48:50;;;;;;;9.63;6.70;;;;;;;4.15;100.00;63357.22;5053338;28;20533;-58
2023/12/21 07:51:16;;;;;;;9.80;6.43;;;;;;;4.23;100.00;63365.94;5071367;28;20191;-57
2023/12/21 07:53:43;;;;;;;15.10;8.87;;;;;;;4.34;100.00;63377.34;5053381;28;20750;-60
2023/12/21 07:56:09;;;;;;;13.00;8.47;;;;;;;4.42;100.00;63388.53;5071396;28;20227;-56
2023/12/21 07:58:35;;;;;;;10.47;6.10;;;;;;;4.37;100.00;63380.59;5071413;28;20241;-58
2023/12/21 08:01:00;;;;;;;10.07;6.07;;;;;;;4.50;100.00;63394.19;5071725;28;20680;-57
2023/12/21 08:03:26;;;;;;;9.20;5.30;;;;;;;4.52;100.00;63396.38;5052230;28;20373;-58
2023/12/21 08:05:51;;;;;;;11.70;6.40;;;;;;;4.33;100.00;63378.75;5053441;28;20715;-56
2023/12/21 08:08:17;;;;;;;8.60;5.70;;;;;;;4.36;100.00;63379.53;5071585;28;20208;-56
2023/12/21 08:10:43;;;;;;;10.27;6.17;;;;;;;4.36;100.00;63383.97;5071372;28;20188;-55
2023/12/21 08:13:09;;;;;;;7.50;5.10;;;;;;;4.52;100.00;63399.41;5071346;28;20736;-56
2023/12/21 08:15:35;;;;;;;9.00;5.67;;;;;;;4.84;100.00;63431.75;5071118;28;20196;-57
2023/12/21 08:18:01;;;;;;;10.93;6.17;;;;;;;4.90;100.00;63440.22;5053018;28;20302;-57
2023/12/21 08:20:27;;;;;;;11.10;6.63;;;;;;;5.03;100.00;63454.91;5071200;28;20277;-56
2023/12/21 08:22:52;;;;;;;8.17;5.60;;;;;;;5.48;100.00;63500.84;5053050;28;20306;-57
2023/12/21 08:25:18;;;;;;;11.97;6.43;;;;;;;5.77;100.00;63529.38;5071133;28;20223;-57
2023/12/21 08:27:44;;;;;;;9.43;6.20;;;;;;;5.58;97.63;63513.69;5071252;28;20216;-58
2023/12/21 08:30:12;;;;;;;9.30;5.47;;;;;;;5.67;99.06;63521.00;5070960;28;20193;-58
2023/12/21 08:32:38;;;;;;;8.13;5.10;;;;;;;5.71;97.87;63528.41;5071328;28;20212;-57
2023/12/21 08:35:04;;;;;;;11.70;5.77;;;;;;;5.65;97.41;63521.31;5071281;28;20241;-57
2023/12/21 08:37:30;;;;;;;7.00;5.47;;;;;;;5.78;96.56;63533.50;5053105;28;20243;-59
2023/12/21 08:39:56;;;;;;;9.03;5.40;;;;;;;5.64;97.16;63520.22;5052914;28;20224;-59
2023/12/21 08:42:21;;;;;;;8.33;5.33;;;;;;;5.40;96.81;63489.09;5070821;28;20250;-55
2023/12/21 08:44:48;;;;;;;7.30;5.23;;;;;;;5.45;98.08;63497.03;5070855;28;20184;-55
2023/12/21 08:47:14;;;;;;;9.83;6.30;;;;;;;5.54;97.37;63506.81;5070626;28;20212;-56
2023/12/21 08:49:39;;;;;;;7.77;5.67;;;;;;;5.93;95.67;63551.84;5070904;28;20192;-55
2023/12/21 08:52:05;;;;;;;9.73;5.20;;;;;;;5.54;94.82;63507.38;5070768;28;20208;-56
2023/12/21 08:54:30;;;;;;;7.57;5.00;;;;;;;5.53;94.92;63503.81;5070818;28;20230;-56
2023/12/21 08:56:57;;;;;;;7.73;4.33;;;;;;;5.63;94.09;63519.13;5070604;28;20236;-56
2023/12/21 08:59:26;;;;;;;7.97;5.37;;;;;;;5.63;93.03;63517.19;5070571;28;20275;-56
2023/12/21 09:01:53;;;;;;;7.10;4.70;;;;;;;5.50;96.07;63499.97;5070494;28;20211;-56
2023/12/21 09:04:20;;;;;;;9.30;5.10;;;;;;;5.80;93.37;63538.19;5070476;28;20249;-56
2023/12/21 09:06:45;;;;;;;8.97;4.73;;;;;;;5.88;92.57;63543.88;5070259;28;20346;-55
2023/12/21 09:09:13;;;;;;;6.20;4.40;;;;;;;5.85;92.40;63541.16;5070799;28;20234;-57
2023/12/21 09:11:39;;;;;;;10.47;4.40;;;;;;;6.05;92.19;63564.34;5070272;28;20189;-56
2023/12/21 09:14:05;;;;;;;7.37;4.87;;;;;;;6.07;91.01;63564.59;5070401;28;20271;-55
2023/12/21 09:16:30;;;;;;;7.77;4.97;;;;;;;5.95;90.31;63551.50;5073721;28;20220;-55
2023/12/21 09:18:56;;;;;;;9.00;4.73;;;;;;;6.01;91.99;63555.53;5074032;28;20189;-55
2023/12/21 09:21:22;;;;;;;8.20;5.67;;;;;;;6.42;92.83;63604.69;5073777;28;20253;-54
2023/12/21 09:23:47;;;;;;;7.80;4.57;;;;;;;6.65;87.38;63627.25;5073956;28;20208;-56
2023/12/21 09:26:13;;;;;;;6.73;4.83;;;;;;;6.96;86.28;63660.50;5073880;28;20184;-56
2023/12/21 09:28:39;;;;;;;9.80;5.40;;;;;;;6.77;86.12;63640.31;5055808;28;20228;-57
2023/12/21 09:31:05;;;;;;;9.43;6.13;;;;;;;6.83;86.75;63646.84;5073752;28;20189;-56
2023/12/21 09:33:36;;;;;;;9.70;5.63;;;;;;;7.41;85.51;63710.13;5073508;28;20308;-55
2023/12/21 09:36:03;;;;;;;9.60;5.07;;;;;;;7.31;82.81;63701.19;5055679;28;20183;-56
2023/12/21 09:38:28;;;;;;;8.10;5.33;;;;;;;7.49;82.38;63718.84;5073964;28;20303;-58
2023/12/21 09:40:56;;;;;;;6.47;4.30;;;;;;;7.27;82.87;63694.31;5073699;28;20296;-55
2023/12/21 09:43:22;;;;;;;6.43;4.83;;;;;;;7.45;82.35;63716.47;5055489;28;20229;-56
2023/12/21 09:45:51;;;;;;;9.53;5.20;;;;;;;7.15;83.46;63681.22;5073705;28;20193;-64
2023/12/21 09:48:19;;;;;;;6.93;4.30;;;;;;;7.17;84.34;63683.41;5055444;28;20219;-54
2023/12/21 09:50:45;;;;;;;7.63;5.13;;;;;;;6.96;84.53;63660.50;5073505;28;20196;-55
2023/12/21 09:53:15;;;;;;;8.53;4.63;;;;;;;6.81;84.36;63646.66;5073333;28;20284;-56
2023/12/21 09:55:46;;;;;;;10.70;4.77;;;;;;;7.21;83.56;63690.81;5073286;28;20223;-54
2023/12/21 09:58:18;;;;;;;7.20;4.30;;;;;;;7.91;83.10;63761.63;5073708;28;20205;-55
2023/12/21 10:00:44;;;;;;;7.97;4.57;;;;;;;8.19;80.81;63797.22;5073313;28;20208;-55
2023/12/21 10:03:10;;;;;;;6.83;4.33;;;;;;;8.26;78.62;63802.38;5073401;28;20744;-55
2023/12/21 10:05:36;;;;;;;7.83;4.30;;;;;;;8.36;75.87;63813.28;5073222;28;20181;-56
2023/12/21 10:08:02;;;;;;;8.47;4.80;;;;;;;7.66;76.54;63734.34;5073236;28;20702;-55
2023/12/21 10:10:28;;;;;;;6.30;3.90;;;;;;;7.73;77.51;63747.00;5073342;28;20188;-55
2023/12/21 10:12:54;;;;;;;7.43;4.20;;;;;;;7.78;77.94;63746.91;5073259;28;20334;-57
2023/12/21 10:15:20;;;;;;;7.60;4.37;;;;;;;8.18;75.50;63793.63;5073114;28;20570;-55
2023/12/21 10:17:46;;;;;;;12.23;4.33;;;;;;;7.78;75.74;63749.94;5054921;28;20242;-55
2023/12/21 10:20:12;;;;;;;7.03;4.07;;;;;;;8.09;78.92;63785.75;5073114;28;20232;-56
2023/12/21 10:22:39;;;;;;;7.57;4.30;;;;;;;8.61;77.71;63842.00;5054864;28;20694;-57
2023/12/21 10:25:07;;;;;;;5.90;4.20;;;;;;;8.83;75.92;63863.53;5072956;28;20187;-56
2023/12/21 10:27:33;;;;;;;7.97;4.53;;;;;;;9.31;74.45;63919.06;5072038;28;20205;-57
2023/12/21 10:29:59;;;;;;;5.80;4.33;;;;;;;8.69;72.64;63848.78;5072933;28;20189;-58
2023/12/21 10:32:25;;;;;;;8.40;4.30;;;;;;;8.63;73.05;63841.69;5072931;28;20304;-55
2023/12/21 10:34:53;;;;;;;4.47;3.73;;;;;;;8.40;73.16;63820.16;5054797;28;20189;-55
2023/12/21 10:37:22;;;;;;;6.57;4.73;;;;;;;8.96;74.45;63878.31;5072820;28;20240;-56
2023/12/21 10:39:47;;;;;;;7.83;4.20;;;;;;;9.80;71.12;63969.56;5072580;28;20193;-57
2023/12/21 10:42:16;;;;;;;7.93;4.80;;;;;;;9.25;70.37;63906.94;5072714;28;20239;-56
2023/12/21 10:44:47;;;;;;;6.67;4.10;;;;;;;8.85;71.16;63868.22;5072613;28;20224;-57
2023/12/21 10:47:16;;;;;;;12.67;5.57;;;;;;;9.08;72.01;63893.38;5072845;28;20209;-56
2023/12/21 10:49:44;;;;;;;6.47;4.50;;;;;;;9.42;69.64;63925.50;5072392;28;20189;-57
2023/12/21 10:52:12;;;;;;;5.57;3.93;;;;;;;9.73;69.33;63961.38;5072301;28;20254;-55
2023/12/21 10:54:38;;;;;;;9.17;4.80;;;;;;;9.65;68.18;63953.19;5072409;28;20275;-55
2023/12/21 10:57:07;;;;;;;6.23;4.47;;;;;;;8.99;69.36;63881.03;5054292;28;20209;-54
2023/12/21 10:59:33;;;;;;;7.13;4.50;;;;;;;9.35;69.88;63922.91;5072400;28;20189;-56
2023/12/21 11:02:00;;;;;;;8.23;3.70;;;;;;;11.23;100.00;64122.50;5053963;28;20212;-55
2023/12/21 11:04:28;;;;;;;8.57;4.13;;;;;;;12.19;94.59;64229.13;5072283;28;20209;-55
2023/12/21 11:06:55;;;;;;;7.33;4.10;;;;;;;12.28;70.86;64237.03;5054182;28;20212;-55
2023/12/21 11:09:22;;;;;;;8.47;3.60;;;;;;;12.59;70.34;64271.03;5072295;28;20196;-55
2023/12/21 11:11:48;;;;;;;5.90;3.57;;;;;;;12.95;75.38;64312.50;5078373;22;20620;-55
2023/12/21 11:14:15;;;;;;;6.07;3.70;;;;;;;13.17;62.19;64339.19;5072127;28;20635;-55
2023/12/21 11:16:47;;;;;;;7.07;4.23;;;;;;;12.02;67.67;64211.06;5071693;28;20205;-56
2023/12/21 11:19:18;;;;;;;5.63;3.77;;;;;;;11.65;60.92;64168.53;5071916;28;20208;-61
2023/12/21 11:21:45;;;;;;;11.77;4.83;;;;;;;11.24;62.38;64126.13;5071679;28;20239;-55